Αναφορές Αεροδρομίων

 

KSJC - San Jose, California, USA
Distance from station: ΒΑ 14km
Ενημερώθηκε: 16/06/2024 01:53
Few Clouds
Few Clouds
 Ανεμος από ΒΒΔ
Ανεμος: ΒΒΔ 19 km/h
Θερμοκρασία: 27°C
Σημείο Δρόσου: 8°C
Υγρασία: 30%
Βαρόμετρο: 1013.2 hPa
Clouds: Few Clouds
Visibility: 16 km
Cloud details: Few Clouds 305 m
Few Clouds 2134 m
2024/06/15 22:53 KSJC 152253Z 34010KT 10SM FEW010 FEW070 27/08 A2992 RMK AO2 SLP130 FU FEW010 T02720083
KNUQ - Moffett Nas/Mtn, California, USA
Distance from station: Β 14km
Ενημερώθηκε: 16/06/2024 01:55
Αίθριος
Αίθριος
 Ανεμος από Β
Ανεμος: Β 22 km/h
Θερμοκρασία: 23°C
Σημείο Δρόσου: 9°C
Υγρασία: 41%
Βαρόμετρο: 1013.5 hPa
Clouds: Αίθριος
Visibility: 14 km
2024/06/15 22:55 KNUQ 152255Z AUTO 35012KT 9SM CLR 23/09 A2993 RMK AO2
 
KPAO - Palo Alto, California, USA
Distance from station: ΒΒΔ 23km
Ενημερώθηκε: 16/06/2024 01:47
Αίθριος
Αίθριος
 Ανεμος από Β
Ανεμος: Β 22 km/h
Θερμοκρασία: 24°C
Σημείο Δρόσου: 9°C
Υγρασία: 39%
Βαρόμετρο: 1013.5 hPa
Clouds: Αίθριος
Visibility: 16 km
2024/06/15 22:47 KPAO 152247Z 35012KT 10SM SKC 24/09 A2993
KRHV - San Jose/Reid, California, USA
Distance from station: ΑΒΑ 19km
Ενημερώθηκε: 16/06/2024 01:47
Αίθριος
Αίθριος
 Ανεμος από ΒΒΔ
Ανεμος: ΒΒΔ 17 km/h
Θερμοκρασία: 27°C
Σημείο Δρόσου: 8°C
Υγρασία: 30%
Βαρόμετρο: 1013.2 hPa
Clouds: Αίθριος
Visibility: 16 km
2024/06/15 22:47 KRHV 152247Z 33009KT 10SM SKC 27/08 A2992
 
KOAK - Oakland, California, USA
Distance from station: ΒΒΔ 50km
Ενημερώθηκε: 16/06/2024 01:53
Few Clouds
Few Clouds
 Ανεμος από Δ
Ανεμος: Δ 28 km/h
Θερμοκρασία: 23°C
Σημείο Δρόσου: 10°C
Υγρασία: 44%
Βαρόμετρο: 1014.2 hPa
Clouds: Few Clouds
Visibility: 16 km
Cloud details: Few Clouds 3048 m
2024/06/15 22:53 KOAK 152253Z 27015KT 10SM FEW100 23/10 A2995 RMK AO2 SLP141 T02280100
KSQL - San Carlos Airpo, California, USA
Distance from station: ΒΔ 34km
Ενημερώθηκε: 16/06/2024 01:47
Αίθριος
Αίθριος
 Ανεμος από Δ
Ανεμος: Δ 28 km/h
Θερμοκρασία: 25°C
Σημείο Δρόσου: 8°C
Υγρασία: 34%
Βαρόμετρο: 1013.9 hPa
Clouds: Αίθριος
Visibility: 16 km
2024/06/15 22:47 KSQL 152247Z 27015KT 10SM CLR 25/08 A2994
 
KSFO - San Francisco, California, USA
Distance from station: ΒΔ 49km
Ενημερώθηκε: 16/06/2024 01:56
Few Clouds
Few Clouds
 Ανεμος από Δ
Ανεμος: Δ 39 km/h
Θερμοκρασία: 19°C
Σημείο Δρόσου: 9°C
Υγρασία: 52%
Βαρόμετρο: 1014.6 hPa
Clouds: Few Clouds
Visibility: 16 km
Cloud details: Few Clouds 6096 m
2024/06/15 22:56 KSFO 152256Z 27021KT 10SM FEW200 19/09 A2996 RMK AO2 PK WND 27027/2255 SLP144 T01940089
KE16 - San Martin, California, USA
Distance from station: ΑΝΑ 43km
Ενημερώθηκε: 16/06/2024 01:55
Αίθριος
Αίθριος
 Ανεμος από ΒΒΔ
Ανεμος: ΒΒΔ 26 km/h, Ριπή: 35 km/h
Θερμοκρασία: 28°C
Σημείο Δρόσου: 4°C
Υγρασία: 21%
Βαρόμετρο: 1013.2 hPa
Clouds: Αίθριος
Visibility: 16 km
2024/06/15 22:55 KE16 152255Z AUTO 34014G19KT 10SM CLR 28/04 A2992 RMK AO2 PWINO PNO
 
KWVI - Watsonville, California, USA
Distance from station: ΝΝΑ 44km
Ενημερώθηκε: 16/06/2024 01:53
Αίθριος
Αίθριος
 Ανεμος από Ν
Ανεμος: Ν 11 km/h
Θερμοκρασία: 23°C
Σημείο Δρόσου: 9°C
Υγρασία: 41%
Βαρόμετρο: 1013.9 hPa
Clouds: Αίθριος
Visibility: 16 km
2024/06/15 22:53 KWVI 152253Z AUTO 19006KT 10SM CLR 23/09 A2994 RMK AO2 SLP139 T02330094
KHAF - Half Moon Bay, California, USA
Distance from station: ΔΒΔ 50km
Ενημερώθηκε: 16/06/2024 01:55
Haze, Αίθριος
Haze, Αίθριος
 Ανεμος από ΒΒΔ
Ανεμος: ΒΒΔ 28 km/h
Θερμοκρασία: 16°C
Σημείο Δρόσου: 11°C
Υγρασία: 72%
Βαρόμετρο: 1015.9 hPa
Περίληψη: Haze
Clouds: Αίθριος
Visibility: 10 km
2024/06/15 22:55 KHAF 152255Z AUTO 33015KT 6SM HZ CLR 16/11 A3000 RMK AO2
 
KHWD - Hayward, California, USA
Distance from station: Β 44km
Ενημερώθηκε: 16/06/2024 01:54
Αίθριος
Αίθριος
 Ανεμος από Δ
Ανεμος: Δ 26 km/h
Θερμοκρασία: 23°C
Σημείο Δρόσου: 11°C
Υγρασία: 47%
Βαρόμετρο: 1013.9 hPa
Clouds: Αίθριος
Visibility: 16 km
2024/06/15 22:54 KHWD 152254Z 28014KT 10SM CLR 23/11 A2994 RMK AO2 SLP148 T02280106
KLVK - Livermore, California, USA
Distance from station: ΒΒΑ 51km
Ενημερώθηκε: 16/06/2024 01:53
Αίθριος
Αίθριος
 Ανεμος από Δ
Ανεμος: Δ 15 km/h
Θερμοκρασία: 28°C
Σημείο Δρόσου: 7°C
Υγρασία: 26%
Βαρόμετρο: 1012.5 hPa
Clouds: Αίθριος
Visibility: 16 km
2024/06/15 22:53 KLVK 152253Z 27008KT 240V300 10SM CLR 28/07 A2990 RMK AO2 SLP120 T02830072